createdAt,value
2023-01-28T00:12:12.390Z,35.75
2023-01-28T00:15:29.484Z,32.90
2023-01-28T00:20:12.602Z,32.90
2023-01-28T00:37:21.402Z,29.13
2023-01-28T00:43:30.564Z,34.25
2023-01-28T00:53:01.611Z,33.67
2023-01-28T00:56:53.081Z,31.73
2023-01-28T01:00:41.870Z,30.73
2023-01-28T01:23:54.647Z,28.75
2023-01-28T01:32:30.564Z,27.05
2023-01-28T01:42:36.085Z,28.63
2023-01-28T01:49:38.919Z,28.83
2023-01-28T01:53:27.471Z,30.10
2023-01-28T02:19:25.918Z,24.52
2023-01-28T02:30:23.161Z,26.23
2023-01-28T02:37:42.726Z,26.38
2023-01-28T02:49:04.713Z,32.00
2023-01-28T03:17:07.029Z,26.92
2023-01-28T03:32:00.629Z,32.20
2023-01-28T03:59:25.295Z,22.85
2023-01-28T04:06:07.457Z,25.52
2023-01-28T04:16:18.489Z,23.60
2023-01-28T04:19:57.070Z,25.98
2023-01-28T04:38:26.062Z,27.27
2023-01-28T04:42:16.543Z,24.42
2023-01-28T04:48:44.075Z,22.83
2023-01-28T04:52:26.203Z,25.00
2023-01-28T05:05:09.805Z,26.65
2023-01-28T05:22:31.740Z,28.02
2023-01-28T05:39:19.653Z,28.83
2023-01-28T05:55:20.715Z,48.95
2023-01-28T06:02:42.805Z,47.67
2023-01-28T06:12:31.089Z,35.95
2023-01-28T06:15:18.092Z,31.48
2023-01-28T06:22:12.084Z,33.72
2023-01-28T06:32:23.513Z,27.70
2023-01-28T06:52:32.746Z,20.83
2023-01-28T06:55:38.778Z,24.30
2023-01-28T07:06:04.692Z,21.10
2023-01-28T07:15:52.459Z,21.63
2023-01-28T07:26:02.731Z,25.90
2023-01-28T07:32:30.192Z,30.63
2023-01-28T07:52:57.413Z,27.48
2023-01-28T07:59:08.152Z,27.30
2023-01-28T08:09:37.064Z,31.83
2023-01-28T08:19:14.702Z,25.90
2023-01-28T08:25:03.192Z,25.83
2023-01-28T08:42:07.710Z,30.95
2023-01-28T08:44:54.146Z,29.80
2023-01-28T08:53:34.551Z,30.40
2023-01-28T08:56:02.929Z,32.35
2023-01-28T08:58:29.981Z,33.97
2023-01-28T09:00:59.424Z,32.75
2023-01-28T09:03:26.346Z,34.28
2023-01-28T09:05:53.085Z,35.70
2023-01-28T09:08:26.627Z,35.88
2023-01-28T09:11:26.843Z,34.72
2023-01-28T09:17:44.798Z,36.65
2023-01-28T09:20:32.606Z,35.97
2023-01-28T09:23:44.442Z,38.88
2023-01-28T09:26:41.269Z,43.83
2023-01-28T09:32:31.861Z,39.95
2023-01-28T09:35:13.947Z,37.97
2023-01-28T09:38:10.370Z,32.78
2023-01-28T09:40:55.975Z,36.63
2023-01-28T09:43:55.289Z,34.40
2023-01-28T09:46:27.145Z,39.67
2023-01-28T09:49:41.099Z,36.95
2023-01-28T09:52:53.696Z,33.92
2023-01-28T09:55:52.373Z,40.10
2023-01-28T09:58:27.682Z,35.83
2023-01-28T10:01:34.170Z,35.88
2023-01-28T10:04:25.199Z,36.22
2023-01-28T10:07:37.206Z,43.25
2023-01-28T10:10:42.266Z,34.50
2023-01-28T10:17:47.116Z,42.05
2023-01-28T10:25:43.621Z,51.97
2023-01-28T10:29:40.288Z,48.10
2023-01-28T10:33:14.896Z,41.88
2023-01-28T10:48:41.392Z,44.40
2023-01-28T12:14:24.587Z,83.97
2023-01-28T12:17:37.092Z,66.72
2023-01-28T12:20:06.884Z,69.30
2023-01-28T12:22:58.109Z,75.32
2023-01-28T12:25:43.600Z,86.55
2023-01-28T12:28:13.158Z,99.43
2023-01-28T12:30:48.086Z,71.65
2023-01-28T12:33:42.482Z,59.10
2023-01-28T12:36:32.543Z,55.70
2023-01-28T12:39:10.850Z,59.15
2023-01-28T12:41:52.876Z,49.42
2023-01-28T12:44:34.678Z,49.38
2023-01-28T12:47:19.715Z,52.15
2023-01-28T12:50:34.538Z,60.05
2023-01-28T12:53:56.261Z,48.78
2023-01-28T12:57:15.578Z,55.97
2023-01-28T13:00:24.430Z,50.95
2023-01-28T13:03:31.634Z,46.58
2023-01-28T13:06:26.970Z,49.92
2023-01-28T13:09:13.884Z,47.50
2023-01-28T13:11:41.660Z,48.08
2023-01-28T13:14:12.692Z,43.88
2023-01-28T13:16:39.853Z,54.70
2023-01-28T13:19:20.147Z,40.70
2023-01-28T13:21:50.026Z,50.28
2023-01-28T13:24:19.402Z,44.75
2023-01-28T13:26:52.522Z,41.53
2023-01-28T13:29:29.929Z,37.67
2023-01-28T13:32:00.424Z,41.30
2023-01-28T13:34:40.713Z,35.58
2023-01-28T13:37:34.548Z,41.90
2023-01-28T13:40:13.592Z,37.75
2023-01-28T13:42:41.208Z,36.63
2023-01-28T13:45:17.268Z,42.58
2023-01-28T13:47:51.432Z,37.65
2023-01-28T13:50:32.387Z,34.17
2023-01-28T13:53:12.227Z,32.58
2023-01-28T13:55:46.026Z,38.92
2023-01-28T13:58:41.696Z,32.97
2023-01-28T14:01:34.753Z,38.13
2023-01-28T14:04:13.411Z,40.22
2023-01-28T14:06:58.769Z,37.50
2023-01-28T14:09:36.292Z,38.20
2023-01-28T14:12:09.940Z,42.35
2023-01-28T14:14:45.688Z,42.35
2023-01-28T14:17:46.350Z,44.97
2023-01-28T14:20:44.853Z,49.85
2023-01-28T14:23:22.052Z,51.17
2023-01-28T14:25:51.609Z,43.78
2023-01-28T14:28:38.120Z,41.08
2023-01-28T14:31:12.073Z,50.85
2023-01-28T14:33:40.734Z,55.00
2023-01-28T14:36:11.771Z,51.95
2023-01-28T14:38:43.289Z,48.40
2023-01-28T14:41:19.415Z,54.08
2023-01-28T14:43:46.146Z,54.55
2023-01-28T14:46:51.565Z,52.30
2023-01-28T14:49:33.979Z,46.42
2023-01-28T14:52:29.214Z,47.58
2023-01-28T14:55:20.375Z,58.40
2023-01-28T14:57:54.076Z,53.92
2023-01-28T15:00:36.690Z,50.38
2023-01-28T15:03:26.607Z,50.53
2023-01-28T15:06:15.479Z,53.88
2023-01-28T15:08:42.447Z,49.92
2023-01-28T15:11:17.863Z,53.92
2023-01-28T15:13:48.169Z,52.83
2023-01-28T15:16:21.995Z,50.65
2023-01-28T15:18:51.205Z,64.32
2023-01-28T15:21:26.901Z,53.55
2023-01-28T15:24:03.232Z,51.33
2023-01-28T15:26:33.499Z,54.88
2023-01-28T15:29:00.497Z,56.25
2023-01-28T15:31:31.137Z,56.33
2023-01-28T15:36:29.775Z,48.22
2023-01-28T15:38:57.623Z,53.88
2023-01-28T15:41:41.276Z,49.47
2023-01-28T15:44:29.190Z,46.83
2023-01-28T15:47:00.458Z,40.78
2023-01-28T15:49:43.774Z,36.72
2023-01-28T15:52:15.400Z,35.72
2023-01-28T15:54:45.356Z,31.95
2023-01-28T15:57:27.362Z,24.45
2023-01-28T16:00:18.339Z,29.50
2023-01-28T16:02:47.190Z,28.83
2023-01-28T16:05:26.225Z,35.25
2023-01-28T16:07:53.607Z,31.30
2023-01-28T16:10:25.132Z,33.55
2023-01-28T16:13:04.698Z,26.90
2023-01-28T16:15:32.647Z,26.27
2023-01-28T16:18:01.717Z,27.88
2023-01-28T16:20:30.141Z,30.83
2023-01-28T16:23:02.670Z,29.25
2023-01-28T16:25:32.870Z,31.05
2023-01-28T16:28:01.621Z,32.20
2023-01-28T16:30:29.341Z,34.60
2023-01-28T16:32:56.800Z,33.92
2023-01-28T16:35:46.932Z,32.58
2023-01-28T16:38:21.249Z,39.95
2023-01-28T16:43:23.214Z,40.22
2023-01-28T16:45:52.376Z,41.05
2023-01-28T16:48:21.464Z,40.60
2023-01-28T16:50:50.871Z,39.60
2023-01-28T16:53:33.722Z,37.13
2023-01-28T16:56:01.023Z,39.08
2023-01-28T17:04:51.350Z,44.78
2023-01-28T17:07:25.032Z,58.03
2023-01-28T17:10:32.121Z,61.22
2023-01-28T17:13:27.899Z,58.10
2023-01-28T17:16:02.823Z,49.58
2023-01-28T17:18:33.042Z,61.15
2023-01-28T17:21:08.888Z,61.35
2023-01-28T17:23:39.189Z,72.25
2023-01-28T17:26:29.452Z,74.70
2023-01-28T17:28:59.619Z,85.50
2023-01-28T17:31:29.987Z,81.18
2023-01-28T17:33:58.346Z,67.00
2023-01-28T17:36:27.271Z,73.68
2023-01-28T17:38:54.383Z,75.28
2023-01-28T17:41:21.664Z,71.40
2023-01-28T17:43:53.156Z,79.00
2023-01-28T17:46:29.073Z,87.20
2023-01-28T17:48:55.889Z,80.55
2023-01-28T17:51:25.496Z,82.45
2023-01-28T17:53:53.354Z,84.45
2023-01-28T17:56:26.202Z,75.20
2023-01-28T17:58:58.688Z,79.80
2023-01-28T18:01:28.081Z,87.95
2023-01-28T18:04:05.275Z,90.18
2023-01-28T18:09:58.481Z,83.72
2023-01-28T18:12:30.783Z,83.95
2023-01-28T18:15:25.941Z,82.95
2023-01-28T18:17:55.798Z,84.05
2023-01-28T18:21:20.304Z,86.65
2023-01-28T18:23:46.508Z,77.55
2023-01-28T18:26:24.907Z,73.13
2023-01-28T18:29:06.255Z,80.50
2023-01-28T18:31:51.835Z,69.28
2023-01-28T18:40:34.667Z,66.47
2023-01-28T18:43:05.951Z,60.58
2023-01-28T18:45:34.336Z,60.05
2023-01-28T18:48:05.753Z,51.03
2023-01-28T18:54:02.524Z,37.08
2023-01-28T18:56:30.703Z,39.70
2023-01-28T18:58:59.226Z,35.38
2023-01-28T19:01:28.003Z,35.67
2023-01-28T19:04:00.154Z,40.78
2023-01-28T19:06:29.453Z,34.45
2023-01-28T19:08:59.500Z,32.55
2023-01-28T19:11:28.056Z,37.30
2023-01-28T19:14:04.372Z,36.40
2023-01-28T19:16:31.801Z,38.17
2023-01-28T19:19:02.838Z,43.78
2023-01-28T19:21:31.444Z,42.63
2023-01-28T19:24:09.273Z,44.22
2023-01-28T19:26:37.076Z,51.95
2023-01-28T19:29:07.179Z,38.72
2023-01-28T19:31:34.111Z,32.80
2023-01-28T19:34:02.824Z,32.42
2023-01-28T19:36:33.429Z,37.28
2023-01-28T19:39:05.508Z,33.27
2023-01-28T19:41:37.102Z,37.85
2023-01-28T19:44:10.791Z,33.53
2023-01-28T19:46:40.499Z,31.85
2023-01-28T19:49:09.485Z,32.47
2023-01-28T19:51:39.495Z,30.40
2023-01-28T19:54:06.713Z,38.42
2023-01-28T19:56:37.458Z,37.95
2023-01-28T20:01:31.540Z,34.65
2023-01-28T20:04:04.496Z,31.08
2023-01-28T20:06:39.882Z,29.38
2023-01-28T20:09:15.222Z,32.60
2023-01-28T20:11:42.227Z,31.38
2023-01-28T20:14:09.181Z,37.75
2023-01-28T20:16:36.784Z,35.40
2023-01-28T20:19:19.311Z,32.38
2023-01-28T20:21:50.764Z,32.78
2023-01-28T20:24:20.264Z,31.73
2023-01-28T20:26:47.186Z,34.05
2023-01-28T20:29:20.209Z,27.55
2023-01-28T20:31:57.610Z,25.65
2023-01-28T20:34:36.129Z,24.30
2023-01-28T20:37:03.927Z,24.70
2023-01-28T20:39:31.127Z,26.50
2023-01-28T21:23:02.431Z,32.75
2023-01-28T21:25:58.545Z,32.17
2023-01-28T21:28:52.729Z,31.52
2023-01-28T21:31:29.487Z,34.42
2023-01-28T21:34:06.259Z,30.48
2023-01-28T21:36:47.320Z,27.02
2023-01-28T21:39:18.279Z,27.52
2023-01-28T21:41:45.891Z,29.08
2023-01-28T21:44:14.328Z,28.02
2023-01-28T21:46:41.172Z,30.65
2023-01-28T21:49:10.804Z,31.02
2023-01-28T21:51:49.595Z,29.23
2023-01-28T21:54:21.429Z,32.95
2023-01-28T21:56:57.684Z,30.80
2023-01-28T21:59:35.523Z,32.88
2023-01-28T22:02:14.265Z,33.88
2023-01-28T22:04:46.198Z,30.17
2023-01-28T22:07:17.328Z,32.15
2023-01-28T22:09:45.689Z,35.67
2023-01-28T22:12:15.882Z,34.78
2023-01-28T22:14:44.107Z,34.55
2023-01-28T22:17:15.386Z,33.45
2023-01-28T22:19:51.057Z,33.05
2023-01-28T22:22:20.308Z,32.85
2023-01-28T22:24:47.358Z,28.83
2023-01-28T22:27:19.627Z,29.73
2023-01-28T22:29:46.622Z,23.88
2023-01-28T22:32:21.281Z,25.30
2023-01-28T22:34:53.487Z,26.08
2023-01-28T22:37:21.806Z,26.40
2023-01-28T22:39:49.132Z,26.50
2023-01-28T22:42:17.384Z,25.25
2023-01-28T22:45:03.772Z,27.23
2023-01-28T22:47:34.763Z,30.73
2023-01-28T22:50:17.684Z,28.30
2023-01-28T22:52:52.657Z,30.40
2023-01-28T22:55:20.970Z,27.10
2023-01-28T22:58:19.662Z,25.08
2023-01-28T23:01:07.660Z,28.55
2023-01-28T23:03:43.842Z,31.58
2023-01-28T23:06:10.693Z,23.27
2023-01-28T23:08:39.965Z,25.17
2023-01-28T23:11:15.482Z,31.05
2023-01-28T23:14:03.920Z,28.08
2023-01-28T23:26:57.932Z,27.25
2023-01-28T23:29:31.625Z,25.35
2023-01-28T23:32:04.921Z,27.17
2023-01-28T23:34:35.156Z,26.50
2023-01-28T23:37:03.436Z,28.98
2023-01-28T23:39:30.649Z,31.38
2023-01-28T23:41:59.749Z,29.33
2023-01-28T23:44:28.213Z,29.13
2023-01-28T23:46:56.954Z,30.70
2023-01-28T23:49:29.363Z,30.75
2023-01-28T23:52:29.501Z,30.17
2023-01-28T23:55:28.423Z,31.70
